sensor_id;sensor_type;location;lat;lon;timestamp;pressure;altitude;pressure_sealevel;temperature;humidity
55032;BME280;40928;51.076;7.950;2023-04-27T00:00:23;97274.47;;;4.70;98.63
55032;BME280;40928;51.076;7.950;2023-04-27T00:02:50;97264.50;;;4.72;98.39
55032;BME280;40928;51.076;7.950;2023-04-27T00:05:15;97267.75;;;4.68;98.68
55032;BME280;40928;51.076;7.950;2023-04-27T00:07:41;97268.13;;;4.65;98.83
55032;BME280;40928;51.076;7.950;2023-04-27T00:10:07;97267.13;;;4.66;98.57
55032;BME280;40928;51.076;7.950;2023-04-27T00:12:33;97262.44;;;4.68;99.33
55032;BME280;40928;51.076;7.950;2023-04-27T00:14:58;97266.31;;;4.65;99.15
55032;BME280;40928;51.076;7.950;2023-04-27T00:17:24;97263.66;;;4.65;99.31
55032;BME280;40928;51.076;7.950;2023-04-27T00:19:49;97262.22;;;4.63;100.00
55032;BME280;40928;51.076;7.950;2023-04-27T00:22:15;97269.50;;;4.61;100.00
55032;BME280;40928;51.076;7.950;2023-04-27T00:24:40;97264.84;;;4.63;100.00
55032;BME280;40928;51.076;7.950;2023-04-27T00:27:06;97263.66;;;4.65;100.00
55032;BME280;40928;51.076;7.950;2023-04-27T00:29:32;97249.81;;;4.63;100.00
55032;BME280;40928;51.076;7.950;2023-04-27T00:31:59;97264.25;;;4.67;100.00
55032;BME280;40928;51.076;7.950;2023-04-27T00:34:24;97265.31;;;4.66;100.00
55032;BME280;40928;51.076;7.950;2023-04-27T00:36:50;97273.25;;;4.66;100.00
55032;BME280;40928;51.076;7.950;2023-04-27T00:39:15;97268.09;;;4.58;100.00
55032;BME280;40928;51.076;7.950;2023-04-27T00:41:41;97262.16;;;4.56;100.00
55032;BME280;40928;51.076;7.950;2023-04-27T00:44:07;97260.75;;;4.53;100.00
55032;BME280;40928;51.076;7.950;2023-04-27T00:46:33;97267.66;;;4.54;100.00
55032;BME280;40928;51.076;7.950;2023-04-27T00:48:59;97270.72;;;4.58;100.00
55032;BME280;40928;51.076;7.950;2023-04-27T00:51:48;97266.84;;;4.54;100.00
55032;BME280;40928;51.076;7.950;2023-04-27T00:54:19;97276.78;;;4.52;100.00
55032;BME280;40928;51.076;7.950;2023-04-27T00:56:49;97268.84;;;4.52;100.00
55032;BME280;40928;51.076;7.950;2023-04-27T00:59:16;97264.78;;;4.49;100.00
55032;BME280;40928;51.076;7.950;2023-04-27T01:01:43;97271.28;;;4.47;100.00
55032;BME280;40928;51.076;7.950;2023-04-27T01:04:09;97270.44;;;4.46;100.00
55032;BME280;40928;51.076;7.950;2023-04-27T01:06:34;97266.78;;;4.47;100.00
55032;BME280;40928;51.076;7.950;2023-04-27T01:09:00;97267.25;;;4.51;100.00
55032;BME280;40928;51.076;7.950;2023-04-27T01:11:27;97278.25;;;4.54;100.00
55032;BME280;40928;51.076;7.950;2023-04-27T01:13:52;97277.81;;;4.51;100.00
55032;BME280;40928;51.076;7.950;2023-04-27T01:16:18;97282.66;;;4.47;100.00
55032;BME280;40928;51.076;7.950;2023-04-27T01:18:45;97285.50;;;4.46;100.00
55032;BME280;40928;51.076;7.950;2023-04-27T01:21:11;97291.59;;;4.46;100.00
55032;BME280;40928;51.076;7.950;2023-04-27T01:23:37;97283.66;;;4.46;100.00
55032;BME280;40928;51.076;7.950;2023-04-27T01:26:02;97281.22;;;4.45;100.00
55032;BME280;40928;51.076;7.950;2023-04-27T01:28:28;97286.31;;;4.46;100.00
55032;BME280;40928;51.076;7.950;2023-04-27T01:30:53;97290.81;;;4.46;100.00
55032;BME280;40928;51.076;7.950;2023-04-27T01:33:19;97289.16;;;4.45;100.00
55032;BME280;40928;51.076;7.950;2023-04-27T01:35:46;97284.69;;;4.45;100.00
55032;BME280;40928;51.076;7.950;2023-04-27T01:38:12;97287.94;;;4.47;100.00
55032;BME280;40928;51.076;7.950;2023-04-27T01:40:37;97280.00;;;4.47;100.00
55032;BME280;40928;51.076;7.950;2023-04-27T01:43:03;97287.56;;;4.50;100.00
55032;BME280;40928;51.076;7.950;2023-04-27T01:45:32;97287.16;;;4.47;100.00
55032;BME280;40928;51.076;7.950;2023-04-27T01:47:58;97287.53;;;4.44;100.00
55032;BME280;40928;51.076;7.950;2023-04-27T01:50:24;97280.97;;;4.39;100.00
55032;BME280;40928;51.076;7.950;2023-04-27T01:52:49;97285.63;;;4.37;100.00
55032;BME280;40928;51.076;7.950;2023-04-27T01:55:15;97287.69;;;4.35;100.00
55032;BME280;40928;51.076;7.950;2023-04-27T01:57:41;97288.50;;;4.36;100.00
55032;BME280;40928;51.076;7.950;2023-04-27T02:00:07;97290.25;;;4.29;100.00
55032;BME280;40928;51.076;7.950;2023-04-27T02:02:50;97283.09;;;4.22;100.00
55032;BME280;40928;51.076;7.950;2023-04-27T02:05:18;97285.75;;;4.22;100.00
55032;BME280;40928;51.076;7.950;2023-04-27T02:07:45;97294.47;;;4.23;100.00
55032;BME280;40928;51.076;7.950;2023-04-27T02:10:16;97298.13;;;4.22;100.00
55032;BME280;40928;51.076;7.950;2023-04-27T02:12:43;97292.25;;;4.20;100.00
55032;BME280;40928;51.076;7.950;2023-04-27T02:15:09;97297.06;;;4.16;100.00
55032;BME280;40928;51.076;7.950;2023-04-27T02:17:34;97302.94;;;4.11;100.00
55032;BME280;40928;51.076;7.950;2023-04-27T02:20:00;97310.88;;;4.11;100.00
55032;BME280;40928;51.076;7.950;2023-04-27T02:22:25;97303.09;;;4.03;100.00
55032;BME280;40928;51.076;7.950;2023-04-27T02:24:51;97307.53;;;4.03;100.00
55032;BME280;40928;51.076;7.950;2023-04-27T02:27:16;97316.28;;;4.03;100.00
55032;BME280;40928;51.076;7.950;2023-04-27T02:29:42;97313.03;;;4.01;100.00
55032;BME280;40928;51.076;7.950;2023-04-27T02:32:07;97308.38;;;4.03;100.00
55032;BME280;40928;51.076;7.950;2023-04-27T02:34:33;97310.00;;;4.04;100.00
55032;BME280;40928;51.076;7.950;2023-04-27T02:36:58;97312.25;;;4.07;100.00
55032;BME280;40928;51.076;7.950;2023-04-27T02:39:24;97315.88;;;4.06;100.00
55032;BME280;40928;51.076;7.950;2023-04-27T02:41:49;97316.91;;;4.05;100.00
55032;BME280;40928;51.076;7.950;2023-04-27T02:44:15;97311.63;;;4.05;100.00
55032;BME280;40928;51.076;7.950;2023-04-27T02:46:41;97308.97;;;4.05;100.00
55032;BME280;40928;51.076;7.950;2023-04-27T02:49:06;97310.38;;;4.01;100.00
55032;BME280;40928;51.076;7.950;2023-04-27T02:51:32;97313.75;;;3.95;100.00
55032;BME280;40928;51.076;7.950;2023-04-27T02:54:01;97302.56;;;3.93;100.00
55032;BME280;40928;51.076;7.950;2023-04-27T02:56:26;97299.91;;;3.93;100.00
55032;BME280;40928;51.076;7.950;2023-04-27T02:58:52;97300.13;;;3.91;100.00
55032;BME280;40928;51.076;7.950;2023-04-27T03:01:17;97298.69;;;3.89;100.00
55032;BME280;40928;51.076;7.950;2023-04-27T03:03:46;97292.78;;;3.87;100.00
55032;BME280;40928;51.076;7.950;2023-04-27T03:06:12;97298.44;;;3.84;100.00
55032;BME280;40928;51.076;7.950;2023-04-27T03:08:38;97296.16;;;3.80;100.00
55032;BME280;40928;51.076;7.950;2023-04-27T03:11:03;97297.72;;;3.75;100.00
55032;BME280;40928;51.076;7.950;2023-04-27T03:13:29;97305.75;;;3.66;100.00
55032;BME280;40928;51.076;7.950;2023-04-27T03:15:55;97301.19;;;3.54;100.00
55032;BME280;40928;51.076;7.950;2023-04-27T03:18:20;97292.47;;;3.38;100.00
55032;BME280;40928;51.076;7.950;2023-04-27T03:20:46;97300.88;;;3.27;100.00
55032;BME280;40928;51.076;7.950;2023-04-27T03:23:13;97299.53;;;3.16;100.00
55032;BME280;40928;51.076;7.950;2023-04-27T03:25:39;97294.34;;;3.08;100.00
55032;BME280;40928;51.076;7.950;2023-04-27T03:28:06;97292.81;;;2.98;100.00
55032;BME280;40928;51.076;7.950;2023-04-27T03:30:32;97287.81;;;2.88;100.00
55032;BME280;40928;51.076;7.950;2023-04-27T03:32:58;97295.47;;;2.83;100.00
55032;BME280;40928;51.076;7.950;2023-04-27T03:35:23;97287.72;;;2.82;100.00
55032;BME280;40928;51.076;7.950;2023-04-27T03:37:49;97288.66;;;2.74;100.00
55032;BME280;40928;51.076;7.950;2023-04-27T03:40:14;97290.34;;;2.67;100.00
55032;BME280;40928;51.076;7.950;2023-04-27T03:42:40;97286.81;;;2.59;100.00
55032;BME280;40928;51.076;7.950;2023-04-27T03:45:06;97289.53;;;2.51;100.00
55032;BME280;40928;51.076;7.950;2023-04-27T03:47:33;97291.81;;;2.39;100.00
55032;BME280;40928;51.076;7.950;2023-04-27T03:49:58;97280.88;;;2.27;100.00
55032;BME280;40928;51.076;7.950;2023-04-27T03:52:24;97287.84;;;2.20;100.00
55032;BME280;40928;51.076;7.950;2023-04-27T03:54:50;97282.97;;;2.17;100.00
55032;BME280;40928;51.076;7.950;2023-04-27T03:57:17;97284.97;;;2.15;100.00
55032;BME280;40928;51.076;7.950;2023-04-27T03:59:42;97294.22;;;2.11;100.00
55032;BME280;40928;51.076;7.950;2023-04-27T04:02:08;97284.03;;;2.08;100.00
55032;BME280;40928;51.076;7.950;2023-04-27T04:04:35;97297.09;;;2.01;100.00
55032;BME280;40928;51.076;7.950;2023-04-27T04:07:01;97302.69;;;1.98;100.00
55032;BME280;40928;51.076;7.950;2023-04-27T04:09:27;97313.66;;;1.87;100.00
55032;BME280;40928;51.076;7.950;2023-04-27T04:11:53;97305.28;;;1.83;100.00
55032;BME280;40928;51.076;7.950;2023-04-27T04:14:19;97301.03;;;1.82;100.00
55032;BME280;40928;51.076;7.950;2023-04-27T04:16:44;97307.28;;;1.81;100.00
55032;BME280;40928;51.076;7.950;2023-04-27T04:19:11;97302.38;;;1.78;100.00
55032;BME280;40928;51.076;7.950;2023-04-27T04:21:37;97303.53;;;1.75;100.00
55032;BME280;40928;51.076;7.950;2023-04-27T04:24:02;97303.06;;;1.72;100.00
55032;BME280;40928;51.076;7.950;2023-04-27T04:26:28;97304.88;;;1.71;100.00
55032;BME280;40928;51.076;7.950;2023-04-27T04:28:54;97312.97;;;1.70;100.00
55032;BME280;40928;51.076;7.950;2023-04-27T04:31:21;97312.66;;;1.64;100.00
55032;BME280;40928;51.076;7.950;2023-04-27T04:33:47;97323.06;;;1.58;100.00
55032;BME280;40928;51.076;7.950;2023-04-27T04:36:14;97323.41;;;1.55;100.00
55032;BME280;40928;51.076;7.950;2023-04-27T04:38:39;97320.97;;;1.53;100.00
55032;BME280;40928;51.076;7.950;2023-04-27T04:41:05;97327.03;;;1.54;100.00
55032;BME280;40928;51.076;7.950;2023-04-27T04:43:32;97324.59;;;1.52;100.00
55032;BME280;40928;51.076;7.950;2023-04-27T04:46:00;97331.53;;;1.45;100.00
55032;BME280;40928;51.076;7.950;2023-04-27T04:48:26;97329.72;;;1.45;100.00
55032;BME280;40928;51.076;7.950;2023-04-27T04:50:53;97325.91;;;1.48;100.00
55032;BME280;40928;51.076;7.950;2023-04-27T04:53:19;97325.91;;;1.48;100.00
55032;BME280;40928;51.076;7.950;2023-04-27T04:55:45;97324.75;;;1.50;100.00
55032;BME280;40928;51.076;7.950;2023-04-27T04:58:10;97326.88;;;1.55;100.00
55032;BME280;40928;51.076;7.950;2023-04-27T05:00:36;97316.34;;;1.55;100.00
55032;BME280;40928;51.076;7.950;2023-04-27T05:03:01;97326.50;;;1.58;100.00
55032;BME280;40928;51.076;7.950;2023-04-27T05:05:27;97341.16;;;1.61;100.00
55032;BME280;40928;51.076;7.950;2023-04-27T05:07:52;97332.41;;;1.60;100.00
55032;BME280;40928;51.076;7.950;2023-04-27T05:10:17;97337.16;;;1.65;100.00
55032;BME280;40928;51.076;7.950;2023-04-27T05:12:43;97333.53;;;1.66;100.00
55032;BME280;40928;51.076;7.950;2023-04-27T05:15:09;97339.09;;;1.71;100.00
55032;BME280;40928;51.076;7.950;2023-04-27T05:17:35;97334.94;;;1.77;100.00
55032;BME280;40928;51.076;7.950;2023-04-27T05:20:00;97352.03;;;1.81;100.00
55032;BME280;40928;51.076;7.950;2023-04-27T05:22:26;97344.78;;;1.83;100.00
55032;BME280;40928;51.076;7.950;2023-04-27T05:24:51;97340.78;;;1.87;100.00
55032;BME280;40928;51.076;7.950;2023-04-27T05:27:17;97339.31;;;1.93;100.00
55032;BME280;40928;51.076;7.950;2023-04-27T05:29:42;97344.84;;;1.98;100.00
55032;BME280;40928;51.076;7.950;2023-04-27T05:32:08;97336.59;;;2.01;100.00
55032;BME280;40928;51.076;7.950;2023-04-27T05:34:34;97334.41;;;2.05;100.00
55032;BME280;40928;51.076;7.950;2023-04-27T05:37:00;97338.53;;;2.07;100.00
55032;BME280;40928;51.076;7.950;2023-04-27T05:39:26;97344.91;;;2.13;100.00
55032;BME280;40928;51.076;7.950;2023-04-27T05:41:52;97344.19;;;2.19;100.00
55032;BME280;40928;51.076;7.950;2023-04-27T05:44:18;97346.75;;;2.27;100.00
55032;BME280;40928;51.076;7.950;2023-04-27T05:46:43;97350.78;;;2.38;100.00
55032;BME280;40928;51.076;7.950;2023-04-27T05:49:09;97347.53;;;2.51;100.00
55032;BME280;40928;51.076;7.950;2023-04-27T05:51:34;97350.91;;;2.60;100.00
55032;BME280;40928;51.076;7.950;2023-04-27T05:54:00;97354.94;;;2.71;100.00
55032;BME280;40928;51.076;7.950;2023-04-27T05:56:26;97363.03;;;2.84;100.00
55032;BME280;40928;51.076;7.950;2023-04-27T05:58:51;97369.50;;;2.97;100.00
55032;BME280;40928;51.076;7.950;2023-04-27T06:01:17;97370.06;;;3.07;100.00
55032;BME280;40928;51.076;7.950;2023-04-27T06:03:42;97374.88;;;3.18;100.00
55032;BME280;40928;51.076;7.950;2023-04-27T06:06:08;97372.31;;;3.25;100.00
55032;BME280;40928;51.076;7.950;2023-04-27T06:08:33;97376.13;;;3.38;100.00
55032;BME280;40928;51.076;7.950;2023-04-27T06:11:01;97375.19;;;3.45;100.00
55032;BME280;40928;51.076;7.950;2023-04-27T06:13:27;97375.13;;;3.54;100.00
55032;BME280;40928;51.076;7.950;2023-04-27T06:15:53;97372.97;;;3.64;100.00
55032;BME280;40928;51.076;7.950;2023-04-27T06:18:18;97379.97;;;3.72;100.00
55032;BME280;40928;51.076;7.950;2023-04-27T06:20:43;97378.03;;;3.80;100.00
55032;BME280;40928;51.076;7.950;2023-04-27T06:23:09;97382.97;;;3.84;100.00
55032;BME280;40928;51.076;7.950;2023-04-27T06:25:35;97391.16;;;3.89;100.00
55032;BME280;40928;51.076;7.950;2023-04-27T06:28:03;97389.75;;;3.93;100.00
55032;BME280;40928;51.076;7.950;2023-04-27T06:30:28;97387.00;;;4.01;100.00
55032;BME280;40928;51.076;7.950;2023-04-27T06:32:54;97397.44;;;4.09;100.00
55032;BME280;40928;51.076;7.950;2023-04-27T06:35:20;97397.13;;;4.19;100.00
55032;BME280;40928;51.076;7.950;2023-04-27T06:37:46;97389.09;;;4.28;100.00
55032;BME280;40928;51.076;7.950;2023-04-27T06:40:11;97393.63;;;4.34;100.00
55032;BME280;40928;51.076;7.950;2023-04-27T06:42:37;97397.94;;;4.41;100.00
55032;BME280;40928;51.076;7.950;2023-04-27T06:45:03;97399.66;;;4.49;98.16
55032;BME280;40928;51.076;7.950;2023-04-27T06:47:29;97397.88;;;4.56;98.44
55032;BME280;40928;51.076;7.950;2023-04-27T06:49:55;97392.88;;;4.68;97.73
55032;BME280;40928;51.076;7.950;2023-04-27T06:52:20;97387.47;;;4.77;96.13
55032;BME280;40928;51.076;7.950;2023-04-27T06:54:46;97394.84;;;4.88;94.14
55032;BME280;40928;51.076;7.950;2023-04-27T06:57:12;97389.44;;;4.96;93.33
55032;BME280;40928;51.076;7.950;2023-04-27T06:59:37;97396.19;;;5.06;90.92
55032;BME280;40928;51.076;7.950;2023-04-27T07:02:03;97390.72;;;5.14;88.28
55032;BME280;40928;51.076;7.950;2023-04-27T07:04:28;97395.69;;;5.24;88.68
55032;BME280;40928;51.076;7.950;2023-04-27T07:06:54;97388.41;;;5.32;87.00
55032;BME280;40928;51.076;7.950;2023-04-27T07:09:20;97385.81;;;5.46;86.40
55032;BME280;40928;51.076;7.950;2023-04-27T07:11:45;97383.41;;;5.51;85.66
55032;BME280;40928;51.076;7.950;2023-04-27T07:14:11;97393.03;;;5.66;84.45
55032;BME280;40928;51.076;7.950;2023-04-27T07:16:37;97386.09;;;5.64;82.44
55032;BME280;40928;51.076;7.950;2023-04-27T07:19:03;97393.41;;;5.62;82.37
55032;BME280;40928;51.076;7.950;2023-04-27T07:21:28;97380.19;;;5.69;82.65
55032;BME280;40928;51.076;7.950;2023-04-27T07:23:54;97381.91;;;5.84;82.41
55032;BME280;40928;51.076;7.950;2023-04-27T07:26:19;97383.75;;;5.97;83.00
55032;BME280;40928;51.076;7.950;2023-04-27T07:28:48;97373.00;;;6.05;80.86
55032;BME280;40928;51.076;7.950;2023-04-27T07:31:14;97378.31;;;6.12;78.93
55032;BME280;40928;51.076;7.950;2023-04-27T07:33:40;97382.63;;;6.19;80.65
55032;BME280;40928;51.076;7.950;2023-04-27T07:36:05;97381.63;;;6.40;78.82
55032;BME280;40928;51.076;7.950;2023-04-27T07:38:32;97376.94;;;6.49;77.54
55032;BME280;40928;51.076;7.950;2023-04-27T07:40:59;97376.72;;;6.64;77.00
55032;BME280;40928;51.076;7.950;2023-04-27T07:43:26;97370.19;;;6.80;77.29
55032;BME280;40928;51.076;7.950;2023-04-27T07:45:52;97366.91;;;6.92;76.92
55032;BME280;40928;51.076;7.950;2023-04-27T07:48:18;97376.66;;;7.11;75.06
55032;BME280;40928;51.076;7.950;2023-04-27T07:50:44;97370.09;;;7.27;72.61
55032;BME280;40928;51.076;7.950;2023-04-27T07:53:09;97373.75;;;7.33;72.56
55032;BME280;40928;51.076;7.950;2023-04-27T07:55:35;97376.59;;;7.38;70.90
55032;BME280;40928;51.076;7.950;2023-04-27T07:58:01;97373.66;;;7.60;68.53
55032;BME280;40928;51.076;7.950;2023-04-27T08:00:26;97368.31;;;7.67;66.00
55032;BME280;40928;51.076;7.950;2023-04-27T08:02:52;97369.50;;;7.77;67.51
55032;BME280;40928;51.076;7.950;2023-04-27T08:05:18;97376.34;;;7.99;63.03
55032;BME280;40928;51.076;7.950;2023-04-27T08:07:44;97378.97;;;8.05;63.04
55032;BME280;40928;51.076;7.950;2023-04-27T08:10:10;97375.94;;;7.95;62.64
55032;BME280;40928;51.076;7.950;2023-04-27T08:12:35;97374.66;;;8.04;63.27
55032;BME280;40928;51.076;7.950;2023-04-27T08:15:01;97374.59;;;8.18;62.08
55032;BME280;40928;51.076;7.950;2023-04-27T08:17:26;97379.53;;;8.14;59.65
55032;BME280;40928;51.076;7.950;2023-04-27T08:19:52;97376.53;;;8.29;60.24
55032;BME280;40928;51.076;7.950;2023-04-27T08:22:18;97368.69;;;8.41;59.52
55032;BME280;40928;51.076;7.950;2023-04-27T08:24:43;97371.09;;;8.56;58.53
55032;BME280;40928;51.076;7.950;2023-04-27T08:27:09;97373.94;;;8.55;57.06
55032;BME280;40928;51.076;7.950;2023-04-27T08:29:35;97371.88;;;8.82;55.95
55032;BME280;40928;51.076;7.950;2023-04-27T08:32:01;97363.06;;;8.81;55.34
55032;BME280;40928;51.076;7.950;2023-04-27T08:34:28;97369.34;;;8.68;54.93
55032;BME280;40928;51.076;7.950;2023-04-27T08:36:54;97370.91;;;8.76;57.32
55032;BME280;40928;51.076;7.950;2023-04-27T08:39:20;97371.28;;;8.80;55.23
55032;BME280;40928;51.076;7.950;2023-04-27T08:41:46;97365.66;;;8.88;56.76
55032;BME280;40928;51.076;7.950;2023-04-27T08:44:11;97358.44;;;8.95;55.82
55032;BME280;40928;51.076;7.950;2023-04-27T08:46:37;97362.16;;;9.13;55.53
55032;BME280;40928;51.076;7.950;2023-04-27T08:49:03;97370.69;;;9.40;55.47
55032;BME280;40928;51.076;7.950;2023-04-27T08:51:31;97367.25;;;9.33;53.91
55032;BME280;40928;51.076;7.950;2023-04-27T08:53:57;97364.97;;;9.37;53.38
55032;BME280;40928;51.076;7.950;2023-04-27T08:56:27;97359.19;;;9.40;56.90
55032;BME280;40928;51.076;7.950;2023-04-27T08:58:55;97358.03;;;9.17;57.08
55032;BME280;40928;51.076;7.950;2023-04-27T09:01:22;97364.13;;;8.99;59.06
55032;BME280;40928;51.076;7.950;2023-04-27T09:03:54;97365.25;;;9.10;58.74
55032;BME280;40928;51.076;7.950;2023-04-27T09:06:31;97367.03;;;8.97;57.87
55032;BME280;40928;51.076;7.950;2023-04-27T09:08:57;97364.53;;;9.03;58.37
55032;BME280;40928;51.076;7.950;2023-04-27T09:11:33;97355.19;;;9.12;58.08
55032;BME280;40928;51.076;7.950;2023-04-27T09:14:01;97364.06;;;9.06;57.83
55032;BME280;40928;51.076;7.950;2023-04-27T09:16:28;97358.72;;;8.87;57.82
55032;BME280;40928;51.076;7.950;2023-04-27T09:18:55;97370.69;;;9.22;58.56
55032;BME280;40928;51.076;7.950;2023-04-27T09:21:28;97363.84;;;9.63;56.88
55032;BME280;40928;51.076;7.950;2023-04-27T09:23:55;97351.66;;;9.86;55.39
55032;BME280;40928;51.076;7.950;2023-04-27T09:26:22;97353.91;;;10.01;55.44
55032;BME280;40928;51.076;7.950;2023-04-27T09:28:55;97348.75;;;10.30;56.02
55032;BME280;40928;51.076;7.950;2023-04-27T09:31:31;97354.00;;;10.79;53.55
55032;BME280;40928;51.076;7.950;2023-04-27T09:33:57;97348.50;;;10.62;53.35
55032;BME280;40928;51.076;7.950;2023-04-27T09:36:23;97354.16;;;10.42;51.43
55032;BME280;40928;51.076;7.950;2023-04-27T09:38:50;97344.94;;;10.26;52.78
55032;BME280;40928;51.076;7.950;2023-04-27T09:41:16;97326.88;;;10.40;52.62
55032;BME280;40928;51.076;7.950;2023-04-27T09:43:43;97330.66;;;10.74;52.41
55032;BME280;40928;51.076;7.950;2023-04-27T09:46:14;97319.94;;;11.10;52.11
55032;BME280;40928;51.076;7.950;2023-04-27T09:48:40;97317.44;;;11.32;51.85
55032;BME280;40928;51.076;7.950;2023-04-27T09:51:06;97316.72;;;11.78;49.78
55032;BME280;40928;51.076;7.950;2023-04-27T09:53:40;97314.41;;;12.27;47.43
55032;BME280;40928;51.076;7.950;2023-04-27T10:01:59;97313.41;;;12.16;47.47
55032;BME280;40928;51.076;7.950;2023-04-27T10:04:42;97310.91;;;11.81;47.57
55032;BME280;40928;51.076;7.950;2023-04-27T10:07:14;97315.63;;;12.37;47.36
55032;BME280;40928;51.076;7.950;2023-04-27T10:09:47;97308.84;;;12.85;47.26
55032;BME280;40928;51.076;7.950;2023-04-27T10:12:25;97317.38;;;12.82;46.37
55032;BME280;40928;51.076;7.950;2023-04-27T10:14:55;97315.75;;;12.81;45.00
55032;BME280;40928;51.076;7.950;2023-04-27T10:17:31;97317.16;;;12.84;44.04
55032;BME280;40928;51.076;7.950;2023-04-27T10:20:05;97316.47;;;12.93;44.78
55032;BME280;40928;51.076;7.950;2023-04-27T10:22:44;97312.31;;;13.25;45.64
55032;BME280;40928;51.076;7.950;2023-04-27T10:25:27;97316.97;;;13.52;44.58
55032;BME280;40928;51.076;7.950;2023-04-27T10:27:59;97316.97;;;13.52;43.83
55032;BME280;40928;51.076;7.950;2023-04-27T10:30:30;97310.47;;;13.48;44.64
55032;BME280;40928;51.076;7.950;2023-04-27T10:32:58;97304.09;;;12.53;44.47
55032;BME280;40928;51.076;7.950;2023-04-27T10:38:10;97307.97;;;12.11;47.02
55032;BME280;40928;51.076;7.950;2023-04-27T10:40:39;97299.47;;;12.14;47.09
55032;BME280;40928;51.076;7.950;2023-04-27T10:43:15;97299.41;;;12.26;46.80
55032;BME280;40928;51.076;7.950;2023-04-27T10:45:43;97297.16;;;12.91;46.21
55032;BME280;40928;51.076;7.950;2023-04-27T10:48:12;97293.34;;;13.76;43.48
55032;BME280;40928;51.076;7.950;2023-04-27T10:50:40;97290.44;;;14.38;40.24
55032;BME280;40928;51.076;7.950;2023-04-27T10:53:06;97291.69;;;15.05;39.06
55032;BME280;40928;51.076;7.950;2023-04-27T10:55:33;97291.16;;;15.82;38.66
55032;BME280;40928;51.076;7.950;2023-04-27T10:57:59;97281.91;;;15.52;38.72
55032;BME280;40928;51.076;7.950;2023-04-27T11:00:33;97281.13;;;14.94;39.26
55032;BME280;40928;51.076;7.950;2023-04-27T11:03:13;97268.13;;;14.37;39.82
55032;BME280;40928;51.076;7.950;2023-04-27T11:05:42;97267.59;;;14.40;39.66
55032;BME280;40928;51.076;7.950;2023-04-27T11:08:10;97265.44;;;15.28;39.05
55032;BME280;40928;51.076;7.950;2023-04-27T11:10:42;97269.16;;;15.96;37.15
55032;BME280;40928;51.076;7.950;2023-04-27T11:13:24;97271.28;;;16.61;36.49
55032;BME280;40928;51.076;7.950;2023-04-27T11:15:52;97261.84;;;16.58;35.49
55032;BME280;40928;51.076;7.950;2023-04-27T11:18:23;97266.13;;;16.75;35.96
55032;BME280;40928;51.076;7.950;2023-04-27T11:21:05;97262.81;;;17.19;34.60
55032;BME280;40928;51.076;7.950;2023-04-27T11:23:32;97261.00;;;16.89;34.06
55032;BME280;40928;51.076;7.950;2023-04-27T11:26:13;97261.88;;;16.17;34.74
55032;BME280;40928;51.076;7.950;2023-04-27T11:28:40;97258.38;;;16.11;35.57
55032;BME280;40928;51.076;7.950;2023-04-27T11:31:06;97262.97;;;16.32;34.92
55032;BME280;40928;51.076;7.950;2023-04-27T11:33:32;97258.91;;;16.19;35.39
55032;BME280;40928;51.076;7.950;2023-04-27T11:35:58;97257.00;;;15.93;35.55
55032;BME280;40928;51.076;7.950;2023-04-27T11:38:24;97254.59;;;15.13;36.57
55032;BME280;40928;51.076;7.950;2023-04-27T11:41:19;97258.84;;;14.93;37.46
55032;BME280;40928;51.076;7.950;2023-04-27T11:43:44;97242.16;;;14.91;37.60
55032;BME280;40928;51.076;7.950;2023-04-27T11:46:13;97249.66;;;15.63;37.72
55032;BME280;40928;51.076;7.950;2023-04-27T11:48:39;97247.88;;;16.31;37.09
55032;BME280;40928;51.076;7.950;2023-04-27T11:51:08;97248.84;;;16.92;35.43
55032;BME280;40928;51.076;7.950;2023-04-27T11:53:36;97250.94;;;17.15;34.19
55032;BME280;40928;51.076;7.950;2023-04-27T11:56:05;97246.44;;;17.56;32.54
55032;BME280;40928;51.076;7.950;2023-04-27T11:58:33;97245.50;;;17.81;33.00
55032;BME280;40928;51.076;7.950;2023-04-27T12:00:59;97246.00;;;18.23;32.29
55032;BME280;40928;51.076;7.950;2023-04-27T12:03:25;97265.69;;;17.39;31.22
55032;BME280;40928;51.076;7.950;2023-04-27T12:05:52;97244.34;;;16.46;32.36
55032;BME280;40928;51.076;7.950;2023-04-27T12:08:18;97262.94;;;16.21;33.18
55032;BME280;40928;51.076;7.950;2023-04-27T12:10:44;97253.78;;;15.91;33.05
55032;BME280;40928;51.076;7.950;2023-04-27T12:13:11;97249.44;;;16.52;33.37
55032;BME280;40928;51.076;7.950;2023-04-27T12:15:37;97248.06;;;16.75;33.61
55032;BME280;40928;51.076;7.950;2023-04-27T12:18:03;97254.84;;;16.63;31.96
55032;BME280;40928;51.076;7.950;2023-04-27T12:20:29;97234.34;;;16.62;33.14
55032;BME280;40928;51.076;7.950;2023-04-27T12:22:56;97242.94;;;16.74;32.90
55032;BME280;40928;51.076;7.950;2023-04-27T12:25:21;97245.97;;;16.52;32.72
55032;BME280;40928;51.076;7.950;2023-04-27T12:27:47;97235.94;;;16.68;33.09
55032;BME280;40928;51.076;7.950;2023-04-27T12:30:13;97234.31;;;16.72;32.61
55032;BME280;40928;51.076;7.950;2023-04-27T12:32:40;97229.75;;;16.62;32.88
55032;BME280;40928;51.076;7.950;2023-04-27T12:35:06;97226.53;;;16.44;32.34
55032;BME280;40928;51.076;7.950;2023-04-27T12:37:33;97222.78;;;16.51;32.95
55032;BME280;40928;51.076;7.950;2023-04-27T12:39:58;97222.53;;;16.32;33.28
55032;BME280;40928;51.076;7.950;2023-04-27T12:42:24;97223.28;;;15.80;33.62
55032;BME280;40928;51.076;7.950;2023-04-27T12:44:50;97217.06;;;15.59;34.57
55032;BME280;40928;51.076;7.950;2023-04-27T12:47:17;97212.47;;;15.39;37.35
55032;BME280;40928;51.076;7.950;2023-04-27T12:49:42;97207.34;;;15.43;36.63
55032;BME280;40928;51.076;7.950;2023-04-27T12:52:08;97211.94;;;15.42;37.23
55032;BME280;40928;51.076;7.950;2023-04-27T12:54:33;97207.84;;;15.29;36.78
55032;BME280;40928;51.076;7.950;2023-04-27T12:57:00;97212.97;;;15.26;34.88
55032;BME280;40928;51.076;7.950;2023-04-27T12:59:33;97203.06;;;15.47;34.32
55032;BME280;40928;51.076;7.950;2023-04-27T13:02:00;97199.59;;;15.62;34.78
55032;BME280;40928;51.076;7.950;2023-04-27T13:04:28;97208.50;;;15.78;34.44
55032;BME280;40928;51.076;7.950;2023-04-27T13:06:54;97209.28;;;15.63;33.75
55032;BME280;40928;51.076;7.950;2023-04-27T13:09:20;97196.09;;;15.61;33.89